createdAt,value
2023-08-31T00:02:18.611Z,73.80
2023-08-31T00:04:46.538Z,73.90
2023-08-31T00:07:14.382Z,73.90
2023-08-31T00:09:42.388Z,73.90
2023-08-31T00:12:10.343Z,73.80
2023-08-31T00:14:38.410Z,73.80
2023-08-31T00:17:07.677Z,73.80
2023-08-31T00:19:36.489Z,73.90
2023-08-31T00:22:05.031Z,73.80
2023-08-31T00:24:37.725Z,73.80
2023-08-31T00:27:07.740Z,73.70
2023-08-31T00:29:35.637Z,73.80
2023-08-31T00:32:04.199Z,73.70
2023-08-31T00:34:33.452Z,73.70
2023-08-31T00:37:01.367Z,73.70
2023-08-31T00:39:29.155Z,73.70
2023-08-31T00:41:57.022Z,73.80
2023-08-31T00:44:25.440Z,73.70
2023-08-31T00:46:53.829Z,73.60
2023-08-31T00:49:21.743Z,73.60
2023-08-31T00:51:51.912Z,73.60
2023-08-31T00:54:20.381Z,73.60
2023-08-31T00:56:48.209Z,73.60
2023-08-31T00:59:17.384Z,73.60
2023-08-31T01:01:56.601Z,73.50
2023-08-31T01:04:34.279Z,73.50
2023-08-31T01:07:10.013Z,73.40
2023-08-31T01:09:46.352Z,73.40
2023-08-31T01:12:19.206Z,73.40
2023-08-31T01:14:52.749Z,73.50
2023-08-31T01:17:24.404Z,73.50
2023-08-31T01:19:54.417Z,73.50
2023-08-31T01:22:29.567Z,73.50
2023-08-31T01:25:02.373Z,73.50
2023-08-31T01:27:31.412Z,73.50
2023-08-31T01:29:59.422Z,73.50
2023-08-31T01:32:27.498Z,73.50
2023-08-31T01:34:55.625Z,73.50
2023-08-31T01:37:33.078Z,73.50
2023-08-31T01:40:08.525Z,73.70
2023-08-31T01:42:37.254Z,73.70
2023-08-31T01:45:06.497Z,73.60
2023-08-31T01:47:34.511Z,73.70
2023-08-31T01:50:02.944Z,73.70
2023-08-31T01:52:31.572Z,73.80
2023-08-31T01:54:59.567Z,73.80
2023-08-31T01:57:28.709Z,73.80
2023-08-31T01:59:56.559Z,73.90
2023-08-31T02:02:24.386Z,73.90
2023-08-31T02:04:52.885Z,73.90
2023-08-31T02:07:20.740Z,73.90
2023-08-31T02:09:48.604Z,73.90
2023-08-31T02:12:16.421Z,73.90
2023-08-31T02:14:45.660Z,74.00
2023-08-31T02:17:13.551Z,74.00
2023-08-31T02:19:41.466Z,74.00
2023-08-31T02:22:10.245Z,74.00
2023-08-31T02:24:38.023Z,74.10
2023-08-31T02:27:06.321Z,74.40
2023-08-31T02:29:34.610Z,76.10
2023-08-31T02:32:06.384Z,75.60
2023-08-31T02:34:34.171Z,75.40
2023-08-31T02:37:01.942Z,75.40
2023-08-31T02:39:29.782Z,75.30
2023-08-31T02:41:57.993Z,75.90
2023-08-31T02:44:25.886Z,75.40
2023-08-31T02:46:53.810Z,75.40
2023-08-31T02:49:23.171Z,75.30
2023-08-31T02:51:51.080Z,75.30
2023-08-31T02:54:20.280Z,75.40
2023-08-31T02:56:48.160Z,75.40
2023-08-31T02:59:16.060Z,75.40
2023-08-31T03:01:47.268Z,75.30
2023-08-31T03:04:15.339Z,75.40
2023-08-31T03:06:44.524Z,75.30
2023-08-31T03:09:12.428Z,75.20
2023-08-31T03:11:40.262Z,75.20
2023-08-31T03:14:08.066Z,75.30
2023-08-31T03:16:35.956Z,75.20
2023-08-31T03:19:03.898Z,75.20
2023-08-31T03:21:31.740Z,75.20
2023-08-31T03:24:01.980Z,75.20
2023-08-31T03:26:29.856Z,75.10
2023-08-31T03:28:57.929Z,75.10
2023-08-31T03:31:25.738Z,75.10
2023-08-31T03:33:53.522Z,75.20
2023-08-31T03:36:21.460Z,75.00
2023-08-31T03:38:49.266Z,75.10
2023-08-31T03:41:18.495Z,75.00
2023-08-31T03:43:46.346Z,75.10
2023-08-31T03:46:14.325Z,75.00
2023-08-31T03:48:42.301Z,74.90
2023-08-31T03:51:10.060Z,74.90
2023-08-31T03:53:37.914Z,74.90
2023-08-31T03:56:06.075Z,74.90
2023-08-31T03:58:35.269Z,74.80
2023-08-31T04:01:03.166Z,75.00
2023-08-31T04:03:31.070Z,75.00
2023-08-31T04:05:58.921Z,75.00
2023-08-31T04:08:26.887Z,74.90
2023-08-31T04:10:54.728Z,74.90
2023-08-31T04:13:22.710Z,74.80
2023-08-31T04:15:52.061Z,74.70
2023-08-31T04:18:20.005Z,74.70
2023-08-31T04:20:52.897Z,74.60
2023-08-31T04:23:21.634Z,74.70
2023-08-31T04:25:52.427Z,74.70
2023-08-31T04:28:20.505Z,74.70
2023-08-31T04:30:48.420Z,74.70
2023-08-31T04:33:18.277Z,74.70
2023-08-31T04:35:46.194Z,74.70
2023-08-31T04:38:14.022Z,74.90
2023-08-31T04:40:41.970Z,74.80
2023-08-31T04:43:09.880Z,74.90
2023-08-31T04:45:38.046Z,74.80
2023-08-31T04:48:06.586Z,74.90
2023-08-31T04:50:35.791Z,74.90
2023-08-31T04:53:04.589Z,74.80
2023-08-31T04:55:32.660Z,76.90
2023-08-31T04:58:00.497Z,77.10
2023-08-31T05:00:28.295Z,76.30
2023-08-31T05:02:56.228Z,76.60
2023-08-31T05:05:24.085Z,76.00
2023-08-31T05:07:53.215Z,77.00
2023-08-31T05:10:21.057Z,76.90
2023-08-31T05:12:48.816Z,77.90
2023-08-31T05:15:17.230Z,78.60
2023-08-31T05:17:45.130Z,77.10
2023-08-31T05:20:13.798Z,76.80
2023-08-31T05:22:41.656Z,75.80
2023-08-31T05:25:10.945Z,76.40
2023-08-31T05:27:38.731Z,76.60
2023-08-31T05:30:07.588Z,75.30
2023-08-31T05:32:36.077Z,74.80
2023-08-31T05:35:04.455Z,74.50
2023-08-31T05:37:35.537Z,74.20
2023-08-31T05:40:07.134Z,74.10
2023-08-31T05:42:36.375Z,73.90
2023-08-31T05:45:05.302Z,73.80
2023-08-31T05:47:33.236Z,78.00
2023-08-31T05:50:01.166Z,77.30
2023-08-31T05:52:29.176Z,73.90
2023-08-31T05:54:57.040Z,73.30
2023-08-31T05:57:24.994Z,73.70
2023-08-31T05:59:54.136Z,73.50
2023-08-31T06:02:22.045Z,73.50
2023-08-31T06:04:50.028Z,73.50
2023-08-31T06:07:18.058Z,74.10
2023-08-31T06:09:45.895Z,76.30
2023-08-31T06:12:13.706Z,74.10
2023-08-31T06:14:41.686Z,74.90
2023-08-31T06:17:12.633Z,73.80
2023-08-31T06:19:40.468Z,74.20
2023-08-31T06:22:08.338Z,73.70
2023-08-31T06:24:37.721Z,73.80
2023-08-31T06:27:06.199Z,74.30
2023-08-31T06:29:33.980Z,75.30
2023-08-31T06:32:01.950Z,76.00
2023-08-31T06:34:31.962Z,76.20
2023-08-31T06:37:00.080Z,75.50
2023-08-31T06:39:28.040Z,74.20
2023-08-31T06:41:55.851Z,73.90
2023-08-31T06:44:23.771Z,74.20
2023-08-31T06:46:51.779Z,74.50
2023-08-31T06:49:21.122Z,74.20
2023-08-31T06:51:50.302Z,74.10
2023-08-31T06:54:18.077Z,74.00
2023-08-31T06:56:45.943Z,74.70
2023-08-31T06:59:13.818Z,72.90
2023-08-31T07:01:41.673Z,72.80
2023-08-31T07:04:09.677Z,72.80
2023-08-31T07:06:37.920Z,72.60
2023-08-31T07:09:09.107Z,72.30
2023-08-31T07:11:36.944Z,72.10
2023-08-31T07:14:04.808Z,70.70
2023-08-31T07:16:32.648Z,70.00
2023-08-31T07:19:00.548Z,69.80
2023-08-31T07:21:28.437Z,69.40
2023-08-31T07:23:56.731Z,69.90
2023-08-31T07:26:26.165Z,69.60
2023-08-31T07:28:54.060Z,68.90
2023-08-31T07:31:21.880Z,69.00
2023-08-31T07:33:49.787Z,67.50
2023-08-31T07:36:17.624Z,67.10
2023-08-31T07:38:45.442Z,66.80
2023-08-31T07:41:13.310Z,67.00
2023-08-31T07:43:48.360Z,66.90
2023-08-31T07:46:22.640Z,67.60
2023-08-31T07:48:51.766Z,68.90
2023-08-31T07:51:24.098Z,70.00
2023-08-31T07:53:52.145Z,70.70
2023-08-31T07:56:20.152Z,73.40
2023-08-31T07:58:49.289Z,72.10
2023-08-31T08:01:17.324Z,72.10
2023-08-31T08:03:45.259Z,70.30
2023-08-31T08:06:13.246Z,67.90
2023-08-31T08:08:41.104Z,68.70
2023-08-31T08:11:08.971Z,67.60
2023-08-31T08:13:36.834Z,65.90
2023-08-31T08:16:06.220Z,65.30
2023-08-31T08:18:34.184Z,62.40
2023-08-31T08:21:02.425Z,60.00
2023-08-31T08:23:30.288Z,57.90
2023-08-31T08:26:00.177Z,57.40
2023-08-31T08:28:29.141Z,55.60
2023-08-31T08:30:57.230Z,55.90
2023-08-31T08:33:26.475Z,56.10
2023-08-31T08:35:58.357Z,56.90
2023-08-31T08:38:27.075Z,57.80
2023-08-31T08:40:54.955Z,59.00
2023-08-31T08:43:28.004Z,59.40
2023-08-31T08:45:59.898Z,61.20
2023-08-31T08:48:29.445Z,62.60
2023-08-31T08:50:57.914Z,63.00
2023-08-31T08:53:25.729Z,63.50
2023-08-31T08:55:53.568Z,63.90
2023-08-31T08:58:21.371Z,63.90
2023-08-31T09:00:49.977Z,64.10
2023-08-31T09:03:18.096Z,64.50
2023-08-31T09:05:48.057Z,64.90
2023-08-31T09:08:16.557Z,65.50
2023-08-31T09:10:45.915Z,65.80
2023-08-31T09:13:16.550Z,65.50
2023-08-31T09:15:46.149Z,64.80
2023-08-31T09:18:18.470Z,63.80
2023-08-31T09:20:48.859Z,62.80
2023-08-31T09:23:17.142Z,61.10
2023-08-31T09:25:45.902Z,58.00
2023-08-31T09:28:14.836Z,55.80
2023-08-31T09:30:44.655Z,54.80
2023-08-31T09:33:17.478Z,53.20
2023-08-31T09:35:52.464Z,52.40
2023-08-31T09:38:20.962Z,53.60
2023-08-31T09:40:48.782Z,53.10
2023-08-31T09:43:22.828Z,49.40
2023-08-31T09:45:51.760Z,48.00
2023-08-31T09:48:19.891Z,47.60
2023-08-31T09:50:48.266Z,48.10
2023-08-31T09:53:18.855Z,49.70
2023-08-31T09:55:48.312Z,49.20
2023-08-31T09:58:19.667Z,44.10
2023-08-31T10:00:48.312Z,42.70
2023-08-31T10:03:18.486Z,41.70
2023-08-31T10:05:49.262Z,40.80
2023-08-31T10:08:19.792Z,39.00
2023-08-31T10:10:48.015Z,38.70
2023-08-31T10:13:17.255Z,41.10
2023-08-31T10:15:45.597Z,44.20
2023-08-31T10:18:13.621Z,46.40
2023-08-31T10:20:45.253Z,47.80
2023-08-31T10:23:13.649Z,48.90
2023-08-31T10:26:05.848Z,49.00
2023-08-31T10:28:42.227Z,49.50
2023-08-31T10:31:11.938Z,48.90
2023-08-31T10:33:43.708Z,46.80
2023-08-31T10:36:14.396Z,41.90
2023-08-31T10:38:43.612Z,41.80
2023-08-31T10:41:23.485Z,41.80
2023-08-31T10:43:53.298Z,38.40
2023-08-31T10:46:28.479Z,39.50
2023-08-31T10:48:57.416Z,40.90
2023-08-31T10:51:26.763Z,36.50
2023-08-31T10:53:54.614Z,34.70
2023-08-31T10:56:23.815Z,35.20
2023-08-31T10:58:59.636Z,38.40
2023-08-31T11:01:54.643Z,41.80
2023-08-31T11:04:23.081Z,44.40
2023-08-31T11:06:51.209Z,45.90
2023-08-31T11:09:23.216Z,46.80
2023-08-31T11:11:52.401Z,47.70
2023-08-31T11:14:20.301Z,48.40
2023-08-31T11:16:48.190Z,48.50
2023-08-31T11:19:16.217Z,44.20
2023-08-31T11:21:44.759Z,39.40
2023-08-31T11:24:12.864Z,39.80
2023-08-31T11:26:40.977Z,40.10
2023-08-31T11:29:10.458Z,40.50
2023-08-31T11:31:41.290Z,40.40
2023-08-31T11:34:13.698Z,39.70
2023-08-31T11:36:42.872Z,37.40
2023-08-31T11:39:11.680Z,35.30
2023-08-31T11:41:42.601Z,33.50
2023-08-31T11:44:13.582Z,31.80
2023-08-31T11:46:43.987Z,31.60
2023-08-31T11:49:12.303Z,30.90
2023-08-31T11:51:42.543Z,30.70
2023-08-31T11:54:10.431Z,30.40
2023-08-31T11:56:41.744Z,30.10
2023-08-31T11:59:13.090Z,30.00
2023-08-31T12:01:42.685Z,29.50
2023-08-31T12:04:14.770Z,29.40
2023-08-31T12:06:44.810Z,29.60
2023-08-31T12:09:12.914Z,30.70
2023-08-31T12:11:40.784Z,32.00
2023-08-31T12:14:22.329Z,32.40
2023-08-31T12:16:50.680Z,31.20
2023-08-31T12:19:18.607Z,29.90
2023-08-31T12:21:48.367Z,29.60
2023-08-31T12:24:18.104Z,32.90
2023-08-31T12:26:46.066Z,35.90
2023-08-31T12:29:13.966Z,36.70
2023-08-31T12:31:44.463Z,37.30
2023-08-31T12:34:12.285Z,38.30
2023-08-31T12:36:41.957Z,39.10
2023-08-31T12:39:10.648Z,39.10
2023-08-31T12:41:39.145Z,39.30
2023-08-31T12:44:07.406Z,39.30
2023-08-31T12:46:35.910Z,39.00
2023-08-31T12:49:05.633Z,39.60
2023-08-31T12:51:33.579Z,39.30
2023-08-31T12:54:01.392Z,40.10
2023-08-31T12:56:29.200Z,39.50
2023-08-31T12:58:57.075Z,39.60
2023-08-31T13:01:25.101Z,39.70
2023-08-31T13:03:53.566Z,39.90
2023-08-31T13:06:25.443Z,39.60
2023-08-31T13:08:53.302Z,39.60
2023-08-31T13:11:24.475Z,39.20
2023-08-31T13:13:53.446Z,39.00
2023-08-31T13:16:23.147Z,39.40
2023-08-31T13:18:50.938Z,39.00
2023-08-31T13:21:18.805Z,38.70
2023-08-31T13:23:47.977Z,38.80
2023-08-31T13:26:15.738Z,39.30
2023-08-31T13:28:44.470Z,40.60
2023-08-31T13:31:13.088Z,40.90
2023-08-31T13:33:41.244Z,41.60
2023-08-31T13:36:10.349Z,40.50
2023-08-31T13:38:38.315Z,40.10
2023-08-31T13:41:08.833Z,40.80
2023-08-31T13:43:36.739Z,41.30
2023-08-31T13:46:05.345Z,42.20
2023-08-31T13:48:33.844Z,43.00
2023-08-31T13:51:01.862Z,43.30
2023-08-31T13:53:29.739Z,44.20
2023-08-31T13:55:57.893Z,45.20
2023-08-31T13:58:27.110Z,45.90
2023-08-31T14:00:55.081Z,47.30
2023-08-31T14:03:24.344Z,49.50
2023-08-31T14:05:52.326Z,49.80
2023-08-31T14:08:20.290Z,51.30
2023-08-31T14:10:48.213Z,52.20
2023-08-31T14:13:17.169Z,54.30
2023-08-31T14:15:48.455Z,54.00
2023-08-31T14:18:16.884Z,53.50
2023-08-31T14:20:45.159Z,54.80
2023-08-31T14:23:13.172Z,53.80
2023-08-31T14:25:40.928Z,53.80
2023-08-31T14:28:08.814Z,54.40
2023-08-31T14:30:38.584Z,56.20
2023-08-31T14:33:07.933Z,56.00
2023-08-31T14:35:38.979Z,57.10
2023-08-31T14:38:07.021Z,58.20
2023-08-31T14:40:36.332Z,57.60
2023-08-31T14:43:16.160Z,58.00
2023-08-31T14:45:44.263Z,57.20
2023-08-31T14:48:13.706Z,58.50
2023-08-31T14:50:44.714Z,57.80
2023-08-31T14:53:12.694Z,58.20
2023-08-31T14:55:40.550Z,58.60
2023-08-31T14:58:10.286Z,59.50
2023-08-31T15:00:38.428Z,59.00
2023-08-31T15:03:06.959Z,59.50
2023-08-31T15:05:36.807Z,55.50
2023-08-31T15:08:06.031Z,56.30
2023-08-31T15:10:33.960Z,55.90
2023-08-31T15:13:02.164Z,57.70
2023-08-31T15:15:30.056Z,57.60
2023-08-31T15:17:58.013Z,56.70
2023-08-31T15:20:26.646Z,58.10
2023-08-31T15:22:56.206Z,57.80
2023-08-31T15:25:23.844Z,54.00
2023-08-31T15:27:51.635Z,50.10
2023-08-31T15:30:19.585Z,51.00
2023-08-31T15:32:47.431Z,52.30
2023-08-31T15:35:17.040Z,53.90
2023-08-31T15:37:48.762Z,54.70
2023-08-31T15:40:18.129Z,55.20
2023-08-31T15:42:45.928Z,57.10
2023-08-31T15:45:13.745Z,59.10
2023-08-31T15:47:41.630Z,58.90
2023-08-31T15:50:10.256Z,59.30
2023-08-31T15:52:38.993Z,59.50
2023-08-31T15:55:07.802Z,60.10
2023-08-31T15:57:38.251Z,60.80
2023-08-31T16:00:09.036Z,62.80
2023-08-31T16:02:37.014Z,62.50
2023-08-31T16:05:08.505Z,62.20
2023-08-31T16:07:38.741Z,63.10
2023-08-31T16:10:07.830Z,64.40
2023-08-31T16:12:37.092Z,64.70
2023-08-31T16:15:05.635Z,64.70
2023-08-31T16:17:33.672Z,64.40
2023-08-31T16:20:01.493Z,64.30
2023-08-31T16:22:29.305Z,63.20
2023-08-31T16:24:57.145Z,62.70
2023-08-31T16:27:25.049Z,63.80
2023-08-31T16:29:54.336Z,62.80
2023-08-31T16:32:22.336Z,63.00
2023-08-31T16:34:53.688Z,62.60
2023-08-31T16:37:21.640Z,61.30
2023-08-31T16:39:51.934Z,62.40
2023-08-31T16:42:19.942Z,62.50
2023-08-31T16:44:47.885Z,63.60
2023-08-31T16:47:17.016Z,63.90
2023-08-31T16:49:45.368Z,63.10
2023-08-31T16:52:13.659Z,62.40
2023-08-31T16:54:41.462Z,64.10
2023-08-31T16:57:09.301Z,64.20
2023-08-31T16:59:37.108Z,65.70
2023-08-31T17:02:05.092Z,64.80
2023-08-31T17:04:34.378Z,66.30
2023-08-31T17:07:02.178Z,64.70
2023-08-31T17:09:30.868Z,63.20
2023-08-31T17:12:00.292Z,63.20
2023-08-31T17:14:28.336Z,62.80
2023-08-31T17:16:56.151Z,63.00
2023-08-31T17:19:23.950Z,62.90
2023-08-31T17:21:53.174Z,63.50
2023-08-31T17:24:21.021Z,62.90
2023-08-31T17:26:48.843Z,63.30
2023-08-31T17:29:16.713Z,64.10
2023-08-31T17:31:45.935Z,63.30
2023-08-31T17:34:17.368Z,64.00
2023-08-31T17:36:45.746Z,64.00
2023-08-31T17:39:15.040Z,64.70
2023-08-31T17:41:42.957Z,63.10
2023-08-31T17:44:10.855Z,63.40
2023-08-31T17:46:38.754Z,64.10
2023-08-31T17:49:06.702Z,65.10
2023-08-31T17:51:34.653Z,65.20
2023-08-31T17:54:02.577Z,66.30
2023-08-31T17:56:33.163Z,66.90
2023-08-31T17:59:01.032Z,67.30
2023-08-31T18:01:29.009Z,67.80
2023-08-31T18:03:56.889Z,66.80
2023-08-31T18:06:24.778Z,66.70
2023-08-31T18:08:52.817Z,67.10
2023-08-31T18:11:20.722Z,67.20
2023-08-31T18:13:49.989Z,67.90
2023-08-31T18:16:18.146Z,68.30
2023-08-31T18:18:46.133Z,68.20
2023-08-31T18:21:13.947Z,68.50
2023-08-31T18:23:42.394Z,70.30
2023-08-31T18:26:10.239Z,69.60
2023-08-31T18:28:38.631Z,68.50
2023-08-31T18:31:07.969Z,67.90
2023-08-31T18:33:37.422Z,66.90
2023-08-31T18:36:05.656Z,66.80
2023-08-31T18:38:33.537Z,66.50
2023-08-31T18:41:04.438Z,65.10
2023-08-31T18:43:32.540Z,65.30
2023-08-31T18:46:00.419Z,66.50
2023-08-31T18:48:30.867Z,67.30
2023-08-31T18:50:59.763Z,68.40
2023-08-31T18:53:28.139Z,68.80
2023-08-31T18:56:01.917Z,69.20
2023-08-31T18:58:30.003Z,69.40
2023-08-31T19:01:00.555Z,69.40
2023-08-31T19:03:29.994Z,69.70
2023-08-31T19:05:58.113Z,70.00
2023-08-31T19:08:25.939Z,70.60
2023-08-31T19:10:53.860Z,71.30
2023-08-31T19:13:21.724Z,71.70
2023-08-31T19:15:49.649Z,72.40
2023-08-31T19:18:17.687Z,72.80
2023-08-31T19:20:47.388Z,73.30
2023-08-31T19:23:15.208Z,73.80
2023-08-31T19:25:43.003Z,73.90
2023-08-31T19:28:11.031Z,74.00
2023-08-31T19:30:39.552Z,74.10
2023-08-31T19:33:07.451Z,74.40
2023-08-31T19:38:07.963Z,75.00
2023-08-31T19:40:35.768Z,74.70
2023-08-31T19:43:03.722Z,74.40
2023-08-31T19:45:31.972Z,74.80
2023-08-31T19:48:00.042Z,75.10
2023-08-31T19:50:28.972Z,71.70
2023-08-31T19:52:56.796Z,70.90
2023-08-31T19:55:26.001Z,70.90
2023-08-31T19:57:53.844Z,71.20
2023-08-31T20:00:23.465Z,71.10
2023-08-31T20:02:51.590Z,71.50
2023-08-31T20:05:20.099Z,71.60
2023-08-31T20:07:49.191Z,71.50
2023-08-31T20:10:18.008Z,71.20
2023-08-31T20:12:47.281Z,71.10
2023-08-31T20:15:15.178Z,71.10
2023-08-31T20:17:43.964Z,71.00
2023-08-31T20:20:14.027Z,70.90
2023-08-31T20:22:42.115Z,70.80
2023-08-31T20:25:10.856Z,70.80
2023-08-31T20:27:39.982Z,70.70
2023-08-31T20:30:11.862Z,70.70
2023-08-31T20:32:40.045Z,70.60
2023-08-31T20:35:08.601Z,70.60
2023-08-31T20:37:36.578Z,70.60
2023-08-31T20:40:08.893Z,70.50
2023-08-31T20:42:36.866Z,70.50
2023-08-31T20:45:06.251Z,70.50
2023-08-31T20:47:35.435Z,70.50
2023-08-31T20:50:05.176Z,70.50
2023-08-31T20:52:34.391Z,70.40
2023-08-31T20:55:08.478Z,70.40
2023-08-31T20:57:36.473Z,70.40
2023-08-31T21:00:05.385Z,70.40
2023-08-31T21:02:33.351Z,70.30
2023-08-31T21:05:04.653Z,70.40
2023-08-31T21:07:32.572Z,70.40
2023-08-31T21:10:00.512Z,70.30
2023-08-31T21:12:28.342Z,70.20
2023-08-31T21:14:56.300Z,70.30
2023-08-31T21:17:24.271Z,70.40
2023-08-31T21:19:52.162Z,70.40
2023-08-31T21:22:21.456Z,70.50
2023-08-31T21:24:49.242Z,72.70
2023-08-31T21:27:17.110Z,73.10
2023-08-31T21:29:45.009Z,72.90
2023-08-31T21:32:12.832Z,72.30
2023-08-31T21:34:42.204Z,72.20
2023-08-31T21:37:10.008Z,72.20
2023-08-31T21:39:39.283Z,72.00
2023-08-31T21:42:07.122Z,72.00
2023-08-31T21:44:34.909Z,71.90
2023-08-31T21:47:03.363Z,72.00
2023-08-31T21:49:31.351Z,71.90
2023-08-31T21:51:59.595Z,71.90
2023-08-31T21:54:27.382Z,71.90
2023-08-31T21:56:56.847Z,71.90
2023-08-31T21:59:24.609Z,71.90
2023-08-31T22:01:52.468Z,71.80
2023-08-31T22:04:20.608Z,71.80
2023-08-31T22:06:48.985Z,71.80
2023-08-31T22:09:17.134Z,71.70
2023-08-31T22:11:45.169Z,71.70
2023-08-31T22:14:14.838Z,71.60
2023-08-31T22:16:43.153Z,71.60
2023-08-31T22:19:11.308Z,71.50
2023-08-31T22:21:39.514Z,71.50
2023-08-31T22:24:08.070Z,71.50
2023-08-31T22:26:36.085Z,71.40
2023-08-31T22:29:04.608Z,71.40
2023-08-31T22:31:35.181Z,71.40
2023-08-31T22:34:03.543Z,71.40
2023-08-31T22:36:31.407Z,71.40
2023-08-31T22:38:59.823Z,71.30
2023-08-31T22:41:27.977Z,71.30
2023-08-31T22:43:56.168Z,71.30
2023-08-31T22:46:24.083Z,71.30
2023-08-31T22:48:54.282Z,71.30
2023-08-31T22:51:22.801Z,71.40
2023-08-31T22:53:50.619Z,71.30
2023-08-31T22:56:18.458Z,71.30
2023-08-31T22:58:46.283Z,71.20
2023-08-31T23:01:14.200Z,71.30
2023-08-31T23:03:42.167Z,71.30
2023-08-31T23:06:11.364Z,71.30
2023-08-31T23:08:40.753Z,71.30
2023-08-31T23:11:09.672Z,71.30
2023-08-31T23:13:37.877Z,71.20
2023-08-31T23:16:06.802Z,71.30
2023-08-31T23:18:34.877Z,71.20
2023-08-31T23:21:06.493Z,71.20
2023-08-31T23:23:36.305Z,72.00
2023-08-31T23:26:04.819Z,72.40
2023-08-31T23:28:33.018Z,73.90
2023-08-31T23:31:00.960Z,73.20
2023-08-31T23:33:28.822Z,73.50
2023-08-31T23:35:57.111Z,72.20
2023-08-31T23:38:26.159Z,73.40
2023-08-31T23:40:58.063Z,73.60
2023-08-31T23:43:26.284Z,73.10
2023-08-31T23:45:54.230Z,73.10
2023-08-31T23:48:22.087Z,73.10
2023-08-31T23:50:50.116Z,73.10
2023-08-31T23:53:18.438Z,73.00
2023-08-31T23:55:46.859Z,73.00
2023-08-31T23:58:16.247Z,73.00
